Time;durP1;ratioP1;P1;durP2;ratioP2;P2;SDS_P1;SDS_P2;PMS_P1;PMS_P2;Temp;Humidity;BMP_temperature;BMP_pressure;BME280_temperature;BME280_humidity;BME280_pressure;Samples;Min_cycle;Max_cycle;Signal;HPM_P1;HPM_P2
2022/04/06 00:00:46;;;;;;;3.38;3.08;;;;;;;9.79;57.61;97882.16;4952198;29;20648;-65
2022/04/06 00:03:11;;;;;;;5.07;2.83;;;;;;;9.87;57.20;97887.56;4944321;28;20204;-65
2022/04/06 00:05:37;;;;;;;3.17;2.88;;;;;;;9.89;56.76;97882.28;4941663;29;20208;-65
2022/04/06 00:08:02;;;;;;;3.22;2.97;;;;;;;9.73;57.46;97886.94;4944968;29;20236;-65
2022/04/06 00:10:29;;;;;;;3.20;3.00;;;;;;;9.68;57.58;97878.69;4952073;29;20193;-65
2022/04/06 00:12:55;;;;;;;3.78;3.00;;;;;;;9.70;57.57;97882.00;4935103;29;20209;-65
2022/04/06 00:15:21;;;;;;;4.45;2.70;;;;;;;9.61;57.82;97893.00;4951885;29;20574;-65
2022/04/06 00:17:46;;;;;;;4.22;3.05;;;;;;;9.61;57.88;97877.50;4952068;29;20199;-65
2022/04/06 00:20:12;;;;;;;3.38;3.10;;;;;;;9.58;58.01;97888.06;4951984;29;20181;-65
2022/04/06 00:22:38;;;;;;;3.00;2.70;;;;;;;9.58;57.94;97891.44;4951848;29;20726;-65
2022/04/06 00:25:04;;;;;;;3.45;2.90;;;;;;;9.57;57.87;97891.59;4940693;29;20200;-65
2022/04/06 00:27:29;;;;;;;6.30;3.30;;;;;;;9.53;58.06;97885.78;4941905;29;20189;-65
2022/04/06 00:29:55;;;;;;;3.88;2.78;;;;;;;9.54;58.22;97902.13;4947437;29;20193;-65
2022/04/06 00:32:20;;;;;;;3.28;3.08;;;;;;;9.40;58.77;97894.56;4951714;29;20193;-65
2022/04/06 00:37:29;;;;;;;3.42;3.13;;;;;;;9.46;58.63;97898.44;4951852;29;20231;-65
2022/04/06 00:39:55;;;;;;;3.20;2.90;;;;;;;9.36;58.73;97897.44;4951578;29;20683;-65
2022/04/06 00:42:20;;;;;;;3.05;2.75;;;;;;;9.22;59.29;97895.88;4951581;29;20219;-65
2022/04/06 00:44:46;;;;;;;4.30;3.25;;;;;;;9.27;59.14;97891.19;4946536;29;20289;-65
2022/04/06 00:47:11;;;;;;;3.47;3.20;;;;;;;9.08;58.90;97847.00;4941066;29;20195;-65
2022/04/06 00:49:37;;;;;;;3.38;3.17;;;;;;;9.26;59.18;97886.97;4942455;29;20196;-65
2022/04/06 00:52:06;;;;;;;3.03;2.70;;;;;;;9.41;58.83;97895.38;4951438;29;20196;-65
2022/04/06 00:54:32;;;;;;;3.95;3.22;;;;;;;9.23;59.34;97891.53;4951242;29;20209;-65
2022/04/06 00:56:59;;;;;;;3.15;2.95;;;;;;;9.26;59.27;97894.72;4951175;29;20193;-65
2022/04/06 00:59:27;;;;;;;3.10;2.90;;;;;;;9.19;59.25;97883.19;4951228;29;20195;-66
2022/04/06 01:01:53;;;;;;;3.78;3.00;;;;;;;9.27;59.11;97886.03;4950854;29;20223;-64
2022/04/06 01:04:19;;;;;;;4.80;3.22;;;;;;;9.44;58.57;97890.81;4951003;28;20285;-64
2022/04/06 01:06:46;;;;;;;3.03;2.83;;;;;;;9.42;58.34;97890.09;4941446;28;20185;-64
2022/04/06 01:09:13;;;;;;;3.47;3.28;;;;;;;9.28;58.91;97904.94;4940754;29;20663;-64
2022/04/06 01:11:40;;;;;;;4.30;3.33;;;;;;;9.29;58.93;97896.25;4945481;29;20248;-66
2022/04/06 01:14:06;;;;;;;4.63;3.00;;;;;;;9.28;59.05;97904.94;4950956;29;20296;-66
2022/04/06 01:16:32;;;;;;;5.00;3.08;;;;;;;9.31;58.80;97909.88;4950829;29;20271;-65
2022/04/06 01:18:57;;;;;;;3.72;2.88;;;;;;;9.28;58.73;97887.69;4950899;29;20219;-66
2022/04/06 01:21:22;;;;;;;3.22;3.03;;;;;;;9.24;58.95;97883.69;4950793;29;20192;-64
2022/04/06 01:23:48;;;;;;;3.50;2.80;;;;;;;9.22;59.03;97885.56;4951049;29;20198;-65
2022/04/06 01:26:14;;;;;;;4.00;3.13;;;;;;;9.25;59.04;97890.47;4949479;29;20677;-64
2022/04/06 01:28:40;;;;;;;3.60;2.90;;;;;;;9.24;58.77;97891.41;4939361;29;20189;-64
2022/04/06 01:31:06;;;;;;;3.42;2.97;;;;;;;9.18;59.22;97899.59;4941403;29;20192;-64
2022/04/06 01:33:32;;;;;;;3.83;2.72;;;;;;;9.21;59.00;97901.94;4947707;29;20225;-66
2022/04/06 01:35:58;;;;;;;5.05;3.17;;;;;;;9.20;59.11;97902.09;4950459;29;20243;-64
2022/04/06 01:38:24;;;;;;;2.97;2.72;;;;;;;9.19;59.07;97906.41;4950518;29;20200;-64
2022/04/06 01:40:51;;;;;;;3.05;2.80;;;;;;;9.08;59.35;97896.00;4950630;29;20193;-65
2022/04/06 01:43:16;;;;;;;2.75;2.58;;;;;;;8.99;59.85;97909.59;4950457;29;20199;-66
2022/04/06 01:45:42;;;;;;;4.60;3.05;;;;;;;8.96;60.11;97904.63;4950154;29;20184;-64
2022/04/06 01:48:08;;;;;;;3.28;2.97;;;;;;;8.98;59.97;97913.06;4944656;29;20283;-64
2022/04/06 01:53:17;;;;;;;3.35;3.15;;;;;;;8.83;60.79;97919.31;4943213;29;20203;-64
2022/04/06 01:55:43;;;;;;;5.88;3.00;;;;;;;8.87;60.65;97923.34;4950169;29;20185;-66
2022/04/06 01:58:09;;;;;;;4.97;3.28;;;;;;;8.81;61.00;97928.09;4949888;29;20953;-64
2022/04/06 02:00:34;;;;;;;4.70;3.08;;;;;;;8.71;61.22;97930.47;4949963;29;20649;-64
2022/04/06 02:03:02;;;;;;;4.40;2.83;;;;;;;8.71;61.65;97927.91;4949988;28;20205;-64
2022/04/06 02:05:32;;;;;;;3.47;3.10;;;;;;;8.61;61.71;97919.13;4950312;29;20224;-65
2022/04/06 02:07:58;;;;;;;3.53;2.90;;;;;;;8.59;62.13;97926.16;4949995;29;20189;-66
2022/04/06 02:10:23;;;;;;;3.30;3.08;;;;;;;8.47;62.26;97921.00;4938588;29;20571;-65
2022/04/06 02:12:49;;;;;;;4.78;3.28;;;;;;;8.67;61.65;97921.28;4940148;29;20312;-65
2022/04/06 02:15:15;;;;;;;3.10;2.90;;;;;;;8.85;60.95;97925.19;4945736;29;20240;-65
2022/04/06 02:17:42;;;;;;;3.67;3.38;;;;;;;8.84;60.99;97914.97;4950024;29;20270;-65
2022/04/06 02:20:09;;;;;;;4.10;3.25;;;;;;;8.87;60.67;97928.50;4948974;28;20640;-65
2022/04/06 02:22:35;;;;;;;3.15;2.95;;;;;;;8.91;60.77;97929.09;4950202;29;20247;-65
2022/04/06 02:25:00;;;;;;;3.55;3.15;;;;;;;8.86;60.70;97919.09;4949673;29;20185;-65
2022/04/06 02:27:25;;;;;;;3.35;3.00;;;;;;;8.77;61.09;97929.22;4949651;29;20185;-65
2022/04/06 02:29:51;;;;;;;3.35;2.95;;;;;;;8.74;61.08;97925.09;4945650;29;20188;-64
2022/04/06 02:32:16;;;;;;;4.50;3.13;;;;;;;8.74;61.18;97934.59;4938944;29;20191;-65
2022/04/06 02:34:42;;;;;;;3.03;2.83;;;;;;;8.67;61.55;97933.38;4940173;29;20205;-65
2022/04/06 02:37:09;;;;;;;3.95;3.25;;;;;;;8.55;62.02;97936.75;4948196;29;20192;-65
2022/04/06 02:39:35;;;;;;;3.00;2.80;;;;;;;8.54;62.05;97946.28;4949636;29;20189;-65
2022/04/06 02:42:00;;;;;;;3.65;3.10;;;;;;;8.62;62.00;97951.72;4949318;29;20559;-66
2022/04/06 02:44:26;;;;;;;8.48;3.20;;;;;;;8.72;61.23;97946.75;4949311;29;20181;-65
2022/04/06 02:46:51;;;;;;;3.60;2.95;;;;;;;8.59;61.69;97944.22;4949478;29;20192;-65
2022/04/06 02:49:18;;;;;;;4.72;2.90;;;;;;;8.70;61.42;97953.78;4949291;29;20599;-65
2022/04/06 02:51:44;;;;;;;3.28;3.03;;;;;;;8.54;61.71;97954.00;4941261;29;20614;-65
2022/04/06 02:54:09;;;;;;;3.10;2.90;;;;;;;8.69;61.38;97942.63;4939628;29;20204;-66
2022/04/06 02:56:35;;;;;;;3.58;3.15;;;;;;;8.57;61.84;97947.81;4942393;29;20738;-65
2022/04/06 02:59:01;;;;;;;3.33;3.03;;;;;;;8.59;61.31;97946.78;4948915;29;20188;-65
2022/04/06 03:01:27;;;;;;;2.90;2.60;;;;;;;8.62;61.45;97945.75;4949406;29;20181;-64
2022/04/06 03:03:53;;;;;;;3.40;3.20;;;;;;;8.64;61.49;97955.03;4948923;28;20236;-65
2022/04/06 03:06:19;;;;;;;3.28;3.00;;;;;;;8.58;61.89;97958.03;4948984;29;20188;-66
2022/04/06 03:08:44;;;;;;;4.13;2.70;;;;;;;8.62;61.54;97951.72;4948886;29;20226;-65
2022/04/06 03:11:10;;;;;;;5.10;3.35;;;;;;;8.58;61.65;97952.88;4948783;29;20220;-66
2022/04/06 03:13:35;;;;;;;3.30;3.00;;;;;;;8.48;62.09;97954.41;4936987;29;20710;-64
2022/04/06 03:16:00;;;;;;;2.83;2.63;;;;;;;8.40;62.00;97946.34;4939210;29;20193;-66
2022/04/06 03:18:26;;;;;;;3.22;3.00;;;;;;;8.46;62.12;97958.81;4945648;29;20270;-65
2022/04/06 03:20:52;;;;;;;3.40;3.20;;;;;;;8.48;62.12;97964.72;4948624;29;20177;-66
2022/04/06 03:23:17;;;;;;;3.15;2.95;;;;;;;8.47;61.93;97968.25;4948828;29;20177;-66
2022/04/06 03:25:43;;;;;;;4.47;3.10;;;;;;;8.48;61.93;97969.03;4948780;29;20290;-65
2022/04/06 03:28:09;;;;;;;3.40;3.10;;;;;;;8.40;61.93;97954.09;4948824;29;20287;-66
2022/04/06 03:30:36;;;;;;;3.38;3.08;;;;;;;8.38;61.99;97950.00;4948269;28;20194;-65
2022/04/06 03:33:01;;;;;;;3.53;3.22;;;;;;;8.46;61.90;97958.03;4943998;29;20213;-65
2022/04/06 03:35:28;;;;;;;3.92;3.28;;;;;;;8.45;61.96;97964.13;4938075;29;20235;-65
2022/04/06 03:37:53;;;;;;;3.40;3.13;;;;;;;8.29;62.14;97972.03;4939628;29;20265;-66
2022/04/06 03:40:19;;;;;;;3.05;2.90;;;;;;;8.33;61.98;97965.75;4948248;29;20184;-65
2022/04/06 03:42:45;;;;;;;3.88;3.00;;;;;;;8.39;61.90;97965.31;4948547;29;20195;-65
2022/04/06 03:45:10;;;;;;;3.28;2.97;;;;;;;8.24;62.36;97963.78;4931300;29;20189;-65
2022/04/06 03:47:37;;;;;;;3.25;2.95;;;;;;;8.28;62.31;97975.53;4948522;29;20184;-65
2022/04/06 03:50:04;;;;;;;3.40;3.10;;;;;;;8.34;61.89;97967.38;4948541;29;20181;-66
2022/04/06 03:52:30;;;;;;;3.80;3.17;;;;;;;8.42;61.36;97974.63;4948629;29;20225;-64
2022/04/06 03:54:56;;;;;;;3.45;3.03;;;;;;;8.39;61.60;97954.22;4939101;29;20208;-64
2022/04/06 03:57:22;;;;;;;3.20;2.90;;;;;;;8.19;62.55;97972.69;4938672;29;20227;-66
2022/04/06 03:59:47;;;;;;;4.25;3.08;;;;;;;8.27;62.25;97976.47;4942854;29;20577;-65
2022/04/06 04:02:13;;;;;;;4.30;3.10;;;;;;;8.29;61.97;97979.78;4948430;29;20181;-65
2022/04/06 04:04:38;;;;;;;5.82;3.28;;;;;;;8.24;62.10;97976.69;4948117;28;20714;-65
2022/04/06 04:07:07;;;;;;;3.33;3.03;;;;;;;8.25;62.28;97983.47;4948194;29;20823;-64
2022/04/06 04:09:33;;;;;;;3.47;3.17;;;;;;;8.25;62.34;97988.63;4948379;29;20255;-64
2022/04/06 04:11:58;;;;;;;3.20;3.00;;;;;;;8.27;61.70;97991.91;4948362;29;20200;-64
2022/04/06 04:14:24;;;;;;;3.60;3.30;;;;;;;8.28;62.14;97988.41;4947064;29;20663;-64
2022/04/06 04:16:49;;;;;;;4.30;2.92;;;;;;;8.47;61.61;97994.03;4936759;29;20197;-66
2022/04/06 04:19:16;;;;;;;4.65;3.00;;;;;;;8.47;61.60;97998.34;4938753;29;20200;-66
2022/04/06 04:21:42;;;;;;;3.45;3.10;;;;;;;8.56;61.07;97995.97;4945813;29;20240;-66
2022/04/06 04:24:10;;;;;;;3.50;2.45;;;;;;;8.64;60.98;97998.03;4948119;29;20181;-66
2022/04/06 04:26:38;;;;;;;2.78;2.58;;;;;;;8.65;60.70;98000.53;4948089;29;20649;-65
2022/04/06 04:29:05;;;;;;;3.30;3.00;;;;;;;8.59;61.36;98002.66;4931316;29;20193;-66
2022/04/06 04:31:30;;;;;;;3.88;3.15;;;;;;;8.55;61.06;98007.22;4948171;29;20211;-65
2022/04/06 04:33:57;;;;;;;3.70;3.40;;;;;;;8.63;61.16;98010.09;4948129;29;20769;-65
2022/04/06 04:36:22;;;;;;;3.85;3.45;;;;;;;8.62;60.95;98017.97;4941165;29;20189;-65
2022/04/06 04:38:48;;;;;;;4.15;3.28;;;;;;;8.78;60.51;98016.81;4937533;29;20737;-66
2022/04/06 04:41:14;;;;;;;2.90;2.63;;;;;;;8.91;59.79;98027.13;4939702;28;20185;-65
2022/04/06 04:43:40;;;;;;;3.45;2.72;;;;;;;9.00;59.24;98026.50;4950840;29;20192;-65
2022/04/06 04:46:07;;;;;;;3.50;2.80;;;;;;;9.11;58.91;98032.59;4951142;29;20192;-67
2022/04/06 04:48:33;;;;;;;3.75;3.05;;;;;;;9.15;58.71;98038.38;4951519;29;20189;-67
2022/04/06 04:50:58;;;;;;;3.40;3.10;;;;;;;9.24;58.37;98033.38;4951336;29;20200;-67
2022/04/06 04:53:24;;;;;;;2.95;2.65;;;;;;;9.29;57.92;98038.22;4951387;29;20244;-67
2022/04/06 04:55:50;;;;;;;3.45;3.15;;;;;;;9.30;58.05;98040.72;4951504;29;20189;-67
2022/04/06 04:58:16;;;;;;;3.75;3.45;;;;;;;9.37;58.18;98052.25;4923481;29;20667;-65
2022/04/06 05:00:42;;;;;;;3.35;3.05;;;;;;;9.32;58.17;98044.00;4940874;29;20224;-65
2022/04/06 05:03:08;;;;;;;3.08;2.80;;;;;;;9.46;57.51;98043.88;4946340;28;20213;-65
2022/04/06 05:05:34;;;;;;;3.88;3.28;;;;;;;9.58;56.84;98043.84;4951120;29;20656;-65
2022/04/06 05:08:00;;;;;;;2.97;2.78;;;;;;;9.82;56.22;98043.88;4951269;29;20219;-65
2022/04/06 05:10:26;;;;;;;4.78;3.08;;;;;;;9.79;56.54;98044.91;4951143;29;20722;-65
2022/04/06 05:12:52;;;;;;;3.40;3.20;;;;;;;9.81;57.06;98044.81;4950620;29;20239;-65
2022/04/06 05:15:19;;;;;;;3.15;2.78;;;;;;;9.86;56.40;98053.06;4950936;29;20180;-65
2022/04/06 05:17:45;;;;;;;3.75;3.00;;;;;;;9.96;55.92;98056.63;4947768;29;20177;-65
2022/04/06 05:20:11;;;;;;;4.00;3.10;;;;;;;9.90;55.86;98059.63;4939605;29;20191;-67
2022/04/06 05:22:37;;;;;;;4.07;3.30;;;;;;;10.06;55.36;98055.06;4941705;29;20204;-65
2022/04/06 05:25:07;;;;;;;3.85;3.53;;;;;;;10.19;55.00;98055.81;4949234;29;20181;-65
2022/04/06 05:27:54;;;;;;;4.20;3.03;;;;;;;10.29;55.01;98060.22;4951166;29;20184;-66
2022/04/06 05:30:23;;;;;;;6.38;3.90;;;;;;;10.29;55.78;98060.22;4950782;29;20285;-66
2022/04/06 05:32:50;;;;;;;8.73;2.95;;;;;;;10.32;54.92;98051.41;4950508;29;20702;-65
2022/04/06 05:35:16;;;;;;;4.38;3.40;;;;;;;10.38;54.62;98063.88;4950573;29;20189;-65
2022/04/06 05:37:43;;;;;;;4.25;3.13;;;;;;;10.36;54.74;98063.19;4950620;29;20189;-66
2022/04/06 05:40:10;;;;;;;5.03;4.30;;;;;;;10.48;55.89;98064.84;4941133;29;20682;-66
2022/04/06 05:42:36;;;;;;;5.85;4.32;;;;;;;10.44;55.84;98068.63;4940192;29;20433;-64
2022/04/06 05:45:04;;;;;;;2.90;2.60;;;;;;;10.40;54.44;98041.34;4945163;29;20181;-64
2022/04/06 05:47:30;;;;;;;7.07;4.38;;;;;;;10.65;55.47;98060.09;4950395;29;20828;-65
2022/04/06 05:49:56;;;;;;;9.65;5.30;;;;;;;10.79;56.10;98062.47;4950406;29;20564;-64
2022/04/06 05:52:21;;;;;;;8.07;5.90;;;;;;;10.99;55.52;98072.19;4950318;29;20197;-66
2022/04/06 05:54:47;;;;;;;12.80;5.20;;;;;;;11.19;54.77;98083.59;4950065;28;20244;-64
2022/04/06 05:57:12;;;;;;;7.50;5.10;;;;;;;11.26;54.56;98077.81;4950393;29;20200;-66
2022/04/06 05:59:38;;;;;;;9.57;6.03;;;;;;;11.38;54.96;98086.44;4948716;29;20260;-66
2022/04/06 06:02:04;;;;;;;7.38;5.75;;;;;;;11.53;54.56;98085.25;4939079;29;20648;-65
2022/04/06 06:04:29;;;;;;;10.80;5.90;;;;;;;11.57;54.76;98082.31;4940301;28;20236;-66
2022/04/06 06:06:55;;;;;;;12.60;7.10;;;;;;;11.73;54.62;98087.16;4947347;29;20686;-66
2022/04/06 06:09:20;;;;;;;9.00;5.88;;;;;;;11.81;54.50;98085.63;4949715;29;20252;-65
2022/04/06 06:11:46;;;;;;;14.77;5.90;;;;;;;11.94;54.56;98088.88;4949941;29;20189;-66
2022/04/06 06:14:11;;;;;;;9.90;5.40;;;;;;;12.06;54.55;98085.31;4949907;29;20217;-64
2022/04/06 06:16:37;;;;;;;7.97;5.97;;;;;;;12.18;53.86;98081.75;4949844;29;20263;-66
2022/04/06 06:19:02;;;;;;;7.80;5.78;;;;;;;12.26;53.63;98078.53;4949539;29;20710;-64
2022/04/06 06:21:31;;;;;;;8.55;6.43;;;;;;;12.34;53.31;98087.34;4944191;29;20185;-64
2022/04/06 06:24:04;;;;;;;8.68;5.60;;;;;;;12.43;52.91;98086.59;4939049;29;20717;-66
2022/04/06 06:26:29;;;;;;;8.50;5.35;;;;;;;12.52;52.54;98082.44;4941898;29;20236;-64
2022/04/06 06:28:55;;;;;;;6.72;5.65;;;;;;;12.63;51.81;98079.78;4950224;29;20196;-65
2022/04/06 06:31:20;;;;;;;6.50;4.75;;;;;;;12.73;51.74;98080.69;4950010;29;20669;-64
2022/04/06 06:33:47;;;;;;;10.35;5.40;;;;;;;12.77;50.85;98085.50;4949317;29;20578;-66
2022/04/06 06:36:12;;;;;;;8.63;5.25;;;;;;;12.59;51.17;98074.03;4949409;29;20799;-66
2022/04/06 06:38:38;;;;;;;6.80;5.72;;;;;;;12.76;51.79;98081.25;4949443;29;20268;-66
2022/04/06 06:41:03;;;;;;;9.57;6.13;;;;;;;12.89;51.87;98091.47;4949723;29;20276;-65
2022/04/06 06:43:28;;;;;;;9.13;5.57;;;;;;;12.85;51.78;98088.28;4939255;29;20193;-65
2022/04/06 06:45:54;;;;;;;6.47;4.80;;;;;;;13.01;51.54;98090.47;4938999;29;20200;-65
2022/04/06 06:48:19;;;;;;;5.75;5.18;;;;;;;13.16;50.93;98084.81;4944386;29;20184;-65
2022/04/06 06:50:45;;;;;;;7.22;4.65;;;;;;;13.34;50.40;98096.25;4949136;29;20592;-65
2022/04/06 06:53:10;;;;;;;5.60;4.53;;;;;;;13.51;49.58;98097.41;4949174;29;20228;-65
2022/04/06 06:55:35;;;;;;;10.45;5.18;;;;;;;13.56;49.53;98092.66;4949211;29;20239;-65
2022/04/06 06:58:01;;;;;;;5.95;4.70;;;;;;;13.69;49.33;98101.88;4949097;29;20193;-65
2022/04/06 07:00:26;;;;;;;6.57;5.00;;;;;;;13.84;48.74;98105.75;4931749;29;20208;-65
2022/04/06 07:02:52;;;;;;;7.50;4.90;;;;;;;13.96;48.62;98109.06;4947265;28;20667;-65
2022/04/06 07:05:17;;;;;;;6.53;4.03;;;;;;;14.08;47.98;98118.41;4937186;28;20236;-65
2022/04/06 07:07:57;;;;;;;10.35;5.05;;;;;;;14.22;47.58;98111.06;4939483;29;20247;-67
2022/04/06 07:10:24;;;;;;;10.25;4.85;;;;;;;14.21;47.85;98111.19;4947227;29;20184;-65
2022/04/06 07:12:51;;;;;;;8.48;5.03;;;;;;;14.22;47.66;98108.47;4948903;29;20192;-65
2022/04/06 07:15:16;;;;;;;8.13;4.90;;;;;;;14.30;47.55;98110.41;4948854;29;20216;-65
2022/04/06 07:17:41;;;;;;;7.88;5.70;;;;;;;14.39;47.43;98119.97;4948673;29;20220;-67
2022/04/06 07:20:08;;;;;;;8.10;5.63;;;;;;;14.40;48.08;98113.84;4948579;29;20252;-65
2022/04/06 07:22:34;;;;;;;12.20;5.95;;;;;;;14.51;48.01;98121.50;4948982;29;20197;-67
2022/04/06 07:25:00;;;;;;;7.80;5.82;;;;;;;14.63;47.57;98123.03;4941422;29;20675;-67
2022/04/06 07:27:26;;;;;;;9.23;5.57;;;;;;;14.76;46.58;98129.59;4938106;29;20199;-65
2022/04/06 07:29:53;;;;;;;8.93;5.60;;;;;;;14.86;46.53;98137.41;4941118;29;20193;-65
2022/04/06 07:32:19;;;;;;;16.00;5.63;;;;;;;14.97;46.43;98135.47;4948676;29;20192;-66
2022/04/06 07:34:44;;;;;;;9.27;5.63;;;;;;;15.07;46.35;98136.31;4948429;29;20213;-65
2022/04/06 07:37:10;;;;;;;11.10;5.60;;;;;;;15.17;45.87;98134.47;4948626;29;20561;-65
2022/04/06 07:39:35;;;;;;;19.23;5.82;;;;;;;15.01;47.25;98138.63;4948404;29;20196;-66
2022/04/06 07:42:01;;;;;;;8.48;5.68;;;;;;;14.89;47.84;98134.53;4948609;29;20188;-66
2022/04/06 07:44:27;;;;;;;9.70;5.57;;;;;;;14.95;47.74;98137.41;4948709;29;20184;-67
2022/04/06 07:46:52;;;;;;;12.07;6.30;;;;;;;15.11;47.47;98140.25;4937433;29;20239;-65
2022/04/06 07:49:18;;;;;;;11.68;6.00;;;;;;;15.02;47.45;98127.25;4938833;29;20254;-65
2022/04/06 07:51:44;;;;;;;9.35;5.60;;;;;;;14.90;47.49;98133.56;4944015;29;20582;-65
2022/04/06 07:54:09;;;;;;;7.07;5.95;;;;;;;15.03;47.11;98131.47;4948598;29;20245;-65
2022/04/06 07:56:36;;;;;;;10.05;5.60;;;;;;;15.14;47.45;98129.56;4948565;29;20188;-65
2022/04/06 07:59:03;;;;;;;13.98;6.32;;;;;;;15.33;46.87;98139.16;4948385;29;20678;-65
2022/04/06 08:01:28;;;;;;;12.82;6.13;;;;;;;15.50;46.33;98135.78;4948439;29;20199;-67
2022/04/06 08:03:54;;;;;;;6.28;5.32;;;;;;;15.64;46.06;98137.97;4948076;28;20232;-65
2022/04/06 08:06:20;;;;;;;8.25;5.45;;;;;;;15.71;45.51;98129.44;4945387;29;20264;-65
2022/04/06 08:08:45;;;;;;;9.65;5.55;;;;;;;15.87;45.64;98137.44;4937042;29;20578;-65
2022/04/06 08:11:10;;;;;;;8.93;5.20;;;;;;;16.02;45.08;98132.56;4939009;29;20199;-65
2022/04/06 08:13:36;;;;;;;8.82;5.18;;;;;;;16.14;44.80;98134.84;4946540;29;20204;-65
2022/04/06 08:16:01;;;;;;;12.25;4.97;;;;;;;16.26;44.78;98140.69;4948679;28;20209;-65
2022/04/06 08:18:28;;;;;;;5.88;4.55;;;;;;;16.34;44.15;98132.94;4951157;29;20199;-65
2022/04/06 08:20:54;;;;;;;10.63;5.18;;;;;;;16.42;43.89;98131.25;4952188;29;20196;-65
2022/04/06 08:23:20;;;;;;;9.13;5.13;;;;;;;16.50;44.09;98133.94;4951773;29;20196;-65
2022/04/06 08:25:46;;;;;;;8.00;4.65;;;;;;;16.55;43.95;98121.25;4951806;29;20643;-65
2022/04/06 08:28:12;;;;;;;7.53;4.90;;;;;;;16.66;43.04;98117.59;4944058;29;20441;-65
2022/04/06 08:30:42;;;;;;;7.07;4.65;;;;;;;16.62;43.66;98116.28;4941226;29;20195;-65
2022/04/06 08:33:09;;;;;;;8.15;5.40;;;;;;;16.64;43.80;98119.56;4944819;29;20188;-65
2022/04/06 08:35:35;;;;;;;9.27;5.03;;;;;;;16.74;43.45;98120.31;4951665;29;20320;-67
2022/04/06 08:38:03;;;;;;;7.95;5.18;;;;;;;16.78;43.38;98119.00;4951525;29;20207;-66
2022/04/06 08:40:30;;;;;;;9.70;5.03;;;;;;;16.73;43.14;98108.22;4951609;29;20620;-65
2022/04/06 08:42:56;;;;;;;5.82;4.97;;;;;;;16.94;43.21;98113.91;4951453;29;20231;-67
2022/04/06 08:45:22;;;;;;;8.45;4.90;;;;;;;17.04;42.71;98125.13;4951989;29;20235;-66
2022/04/06 08:47:49;;;;;;;4.88;4.45;;;;;;;17.13;42.92;98124.22;4951206;29;20192;-66
2022/04/06 08:50:18;;;;;;;8.95;5.03;;;;;;;17.20;42.22;98122.63;4940166;29;20270;-65
2022/04/06 08:52:45;;;;;;;6.82;4.35;;;;;;;17.22;42.67;98123.28;4941846;29;20738;-65
2022/04/06 08:55:12;;;;;;;5.65;3.90;;;;;;;17.30;42.06;98115.47;4948324;29;20204;-65
2022/04/06 08:57:40;;;;;;;9.50;4.65;;;;;;;17.31;42.22;98111.91;4951494;29;20188;-65
2022/04/06 09:00:10;;;;;;;5.10;4.60;;;;;;;17.20;42.42;98104.31;4951248;29;20191;-65
2022/04/06 09:02:35;;;;;;;10.40;4.53;;;;;;;17.38;42.11;98097.28;4951285;28;20184;-66
2022/04/06 09:05:02;;;;;;;4.68;4.18;;;;;;;17.48;41.69;98105.84;4951000;29;20239;-65
2022/04/06 09:07:28;;;;;;;6.72;4.53;;;;;;;17.58;41.12;98101.31;4950470;29;20333;-65
2022/04/06 09:09:55;;;;;;;7.75;4.28;;;;;;;17.67;41.10;98101.19;4944999;29;20199;-65
2022/04/06 09:12:24;;;;;;;7.80;4.03;;;;;;;17.80;40.14;98106.81;4940834;29;20655;-65
2022/04/06 09:15:06;;;;;;;5.65;4.35;;;;;;;17.77;40.97;98096.66;4942865;29;20244;-65
2022/04/06 09:17:42;;;;;;;6.35;4.53;;;;;;;17.84;40.43;98092.41;4950641;29;20280;-65
2022/04/06 09:20:10;;;;;;;5.10;3.80;;;;;;;17.91;40.31;98088.22;4950942;29;20184;-65
2022/04/06 09:22:36;;;;;;;5.55;3.47;;;;;;;17.97;39.51;98079.72;4950913;29;20192;-65
2022/04/06 09:25:05;;;;;;;5.82;3.90;;;;;;;18.00;39.41;98083.81;4950876;29;20184;-66
2022/04/06 09:27:31;;;;;;;5.63;4.20;;;;;;;18.06;39.03;98077.94;4950693;28;20259;-65
2022/04/06 09:29:58;;;;;;;5.47;3.42;;;;;;;18.19;39.24;98083.56;4949732;29;20184;-66
2022/04/06 09:32:24;;;;;;;6.63;3.97;;;;;;;18.29;39.06;98085.03;4939023;29;20193;-65
2022/04/06 09:34:49;;;;;;;5.55;3.63;;;;;;;18.28;38.74;98077.34;4940969;29;20201;-66
2022/04/06 09:37:31;;;;;;;5.68;3.97;;;;;;;18.34;38.05;98071.47;4947476;29;20227;-65
2022/04/06 09:40:06;;;;;;;5.95;3.88;;;;;;;18.38;37.78;98062.31;4950341;29;20217;-65
2022/04/06 09:42:32;;;;;;;4.68;3.45;;;;;;;18.57;37.57;98073.31;4950201;29;20192;-65
2022/04/06 09:47:53;;;;;;;4.35;3.78;;;;;;;18.72;37.08;98065.63;4950713;29;20191;-65
2022/04/06 09:50:26;;;;;;;4.28;3.70;;;;;;;18.81;36.75;98067.25;4950068;29;20219;-66
2022/04/06 09:52:53;;;;;;;3.83;3.53;;;;;;;18.92;36.71;98069.53;4940449;29;20195;-66
2022/04/06 09:55:21;;;;;;;6.38;3.05;;;;;;;19.05;36.00;98056.78;4940189;29;20257;-65
2022/04/06 09:57:50;;;;;;;3.22;2.88;;;;;;;19.14;35.47;98061.00;4945450;29;20188;-66
2022/04/06 10:00:18;;;;;;;3.40;3.10;;;;;;;19.04;34.81;98052.47;4950406;29;20196;-66
2022/04/06 10:02:46;;;;;;;3.65;2.88;;;;;;;19.00;33.60;98049.38;4950487;28;20243;-64
2022/04/06 10:05:13;;;;;;;3.70;2.92;;;;;;;19.13;33.21;98048.88;4949994;29;20315;-64
2022/04/06 10:07:43;;;;;;;2.90;2.70;;;;;;;19.08;31.84;98045.94;4950101;29;20694;-64
2022/04/06 10:10:10;;;;;;;3.33;2.58;;;;;;;19.21;31.35;98043.63;4949752;29;20197;-66
2022/04/06 10:12:36;;;;;;;5.28;3.30;;;;;;;19.33;31.66;98031.78;4946421;29;20267;-64
2022/04/06 10:15:02;;;;;;;2.95;2.75;;;;;;;19.39;31.35;98033.75;4938506;29;20216;-65
2022/04/06 10:17:31;;;;;;;4.03;2.63;;;;;;;19.63;29.75;98033.66;4940792;29;20271;-66
2022/04/06 10:20:35;;;;;;;2.83;2.50;;;;;;;19.81;29.54;98031.63;4948650;29;20651;-67
2022/04/06 10:23:25;;;;;;;2.58;2.38;;;;;;;19.68;27.86;98031.34;4927302;29;20188;-65
2022/04/06 10:26:06;;;;;;;5.63;2.40;;;;;;;19.87;29.08;98026.50;4949907;29;20212;-65
2022/04/06 10:28:33;;;;;;;7.13;4.22;;;;;;;20.08;27.36;98031.16;4949355;29;20585;-65
2022/04/06 10:31:28;;;;;;;4.00;3.17;;;;;;;20.18;26.39;98029.13;4949432;29;20185;-65
2022/04/06 10:34:28;;;;;;;3.72;2.58;;;;;;;20.34;27.90;98016.69;4942727;29;20607;-65
2022/04/06 10:37:12;;;;;;;2.28;2.17;;;;;;;20.28;26.64;98020.03;4938804;29;20856;-65
2022/04/06 10:39:59;;;;;;;3.20;2.42;;;;;;;20.28;26.97;98020.03;4942712;28;20180;-66
2022/04/06 10:42:27;;;;;;;3.10;2.80;;;;;;;20.51;27.13;98020.03;4949228;29;20196;-65
2022/04/06 10:44:53;;;;;;;2.30;2.10;;;;;;;20.78;26.90;98016.84;4949324;29;20245;-65
2022/04/06 10:47:20;;;;;;;3.50;2.70;;;;;;;21.10;26.22;98011.31;4949206;29;20232;-65
2022/04/06 10:50:08;;;;;;;2.55;2.35;;;;;;;21.44;25.29;98016.88;4949242;29;20193;-65
2022/04/06 10:52:34;;;;;;;2.20;2.00;;;;;;;21.69;24.93;98012.97;4949163;29;21013;-67
2022/04/06 10:55:19;;;;;;;2.33;2.22;;;;;;;21.97;24.89;98011.28;4944450;29;20212;-66
2022/04/06 10:58:04;;;;;;;3.88;2.50;;;;;;;22.14;24.89;98005.56;4938158;29;20270;-67
2022/04/06 11:00:30;;;;;;;2.97;2.67;;;;;;;22.32;26.30;98008.59;4941735;29;20192;-67
2022/04/06 11:03:19;;;;;;;3.10;2.70;;;;;;;22.33;26.73;98004.16;4949257;28;20212;-66
2022/04/06 11:05:49;;;;;;;2.80;2.50;;;;;;;22.33;26.68;98006.78;4949061;29;20577;-66
2022/04/06 11:11:45;;;;;;;3.08;2.42;;;;;;;22.17;26.02;97991.19;4949141;29;20297;-66
2022/04/06 11:14:23;;;;;;;4.85;2.65;;;;;;;22.08;26.22;97987.06;4949138;29;20218;-66
2022/04/06 11:16:49;;;;;;;3.60;2.60;;;;;;;22.41;26.22;97988.19;4940379;29;20188;-66
2022/04/06 11:19:15;;;;;;;3.28;2.22;;;;;;;22.70;26.00;97983.63;4938915;29;20595;-65
2022/04/06 11:21:52;;;;;;;4.20;2.95;;;;;;;22.94;26.18;97982.34;4942436;29;20196;-65
2022/04/06 11:24:27;;;;;;;3.20;2.40;;;;;;;23.08;25.51;97982.25;4948716;29;20239;-66
2022/04/06 11:26:54;;;;;;;5.35;2.60;;;;;;;22.66;26.19;97984.19;4948604;29;20184;-65
2022/04/06 11:29:25;;;;;;;2.08;1.98;;;;;;;22.52;25.83;97978.00;4948610;29;20176;-66
2022/04/06 11:32:02;;;;;;;2.92;2.20;;;;;;;22.69;25.91;97981.16;4948744;29;20187;-66
2022/04/06 11:34:35;;;;;;;3.35;2.20;;;;;;;22.50;25.74;97969.44;4948601;29;20713;-66
2022/04/06 11:37:02;;;;;;;2.33;2.20;;;;;;;22.79;25.68;97971.09;4945094;29;20192;-64
2022/04/06 11:39:30;;;;;;;5.63;2.45;;;;;;;22.84;25.52;97961.59;4937969;29;20247;-67
2022/04/06 11:41:55;;;;;;;2.65;2.22;;;;;;;22.94;25.88;97961.25;4939235;29;20172;-65
2022/04/06 11:44:24;;;;;;;2.80;2.30;;;;;;;23.02;25.15;97953.19;4947345;29;20658;-65
2022/04/06 11:46:50;;;;;;;2.55;2.20;;;;;;;23.09;25.01;97946.94;4948520;29;20763;-65
2022/04/06 11:49:32;;;;;;;2.78;2.50;;;;;;;23.32;25.57;97946.69;4948306;29;20188;-66